createdAt,value
2023-03-12T00:02:19.404Z,-2.16
2023-03-12T00:04:45.710Z,-2.17
2023-03-12T00:07:12.019Z,-2.23
2023-03-12T00:09:38.348Z,-2.29
2023-03-12T00:12:04.685Z,-2.30
2023-03-12T00:14:30.991Z,-2.25
2023-03-12T00:16:57.285Z,-2.17
2023-03-12T00:19:23.585Z,-2.35
2023-03-12T00:21:49.909Z,-2.23
2023-03-12T00:24:16.818Z,-2.22
2023-03-12T00:26:43.185Z,-2.20
2023-03-12T00:29:09.490Z,-2.11
2023-03-12T00:31:35.963Z,-2.23
2023-03-12T00:34:02.316Z,-2.24
2023-03-12T00:36:28.864Z,-2.07
2023-03-12T00:38:55.177Z,-2.07
2023-03-12T00:41:21.551Z,-2.00
2023-03-12T00:43:47.893Z,-1.91
2023-03-12T00:46:14.205Z,-1.86
2023-03-12T00:48:40.537Z,-1.86
2023-03-12T00:51:06.853Z,-1.87
2023-03-12T00:53:33.175Z,-1.85
2023-03-12T00:55:59.496Z,-1.82
2023-03-12T00:58:25.828Z,-1.82
2023-03-12T01:00:52.160Z,-1.82
2023-03-12T01:03:18.478Z,-1.75
2023-03-12T01:05:44.824Z,-1.85
2023-03-12T01:08:11.140Z,-1.75
2023-03-12T01:10:37.516Z,-1.74
2023-03-12T01:13:03.818Z,-1.79
2023-03-12T01:15:30.189Z,-1.78
2023-03-12T01:17:56.488Z,-1.76
2023-03-12T01:20:23.311Z,-1.74
2023-03-12T01:22:49.790Z,-1.81
2023-03-12T01:25:16.101Z,-1.81
2023-03-12T01:27:42.412Z,-1.85
2023-03-12T01:30:08.752Z,-1.84
2023-03-12T01:32:35.119Z,-1.93
2023-03-12T01:35:01.482Z,-1.97
2023-03-12T01:37:27.823Z,-2.07
2023-03-12T01:39:54.130Z,-2.16
2023-03-12T01:42:20.436Z,-2.14
2023-03-12T01:44:46.759Z,-2.06
2023-03-12T01:47:13.079Z,-2.01
2023-03-12T01:49:39.401Z,-2.05
2023-03-12T01:52:05.947Z,-2.02
2023-03-12T01:54:32.342Z,-2.06
2023-03-12T01:56:58.662Z,-2.06
2023-03-12T01:59:24.995Z,-2.16
2023-03-12T02:01:51.549Z,-2.18
2023-03-12T02:04:17.940Z,-2.16
2023-03-12T02:06:44.381Z,-2.22
2023-03-12T02:09:12.680Z,-2.21
2023-03-12T02:11:39.016Z,-2.28
2023-03-12T02:14:05.336Z,-2.27
2023-03-12T02:16:31.827Z,-2.26
2023-03-12T02:18:58.220Z,-2.32
2023-03-12T02:21:24.534Z,-2.23
2023-03-12T02:23:50.878Z,-2.41
2023-03-12T02:26:17.182Z,-2.39
2023-03-12T02:28:44.327Z,-2.31
2023-03-12T02:31:10.736Z,-2.35
2023-03-12T02:33:37.073Z,-2.39
2023-03-12T02:36:03.423Z,-2.34
2023-03-12T02:38:29.737Z,-2.28
2023-03-12T02:40:56.076Z,-2.45
2023-03-12T02:43:22.444Z,-2.57
2023-03-12T02:45:48.794Z,-2.61
2023-03-12T02:48:15.152Z,-2.48
2023-03-12T02:50:41.457Z,-2.62
2023-03-12T02:53:07.778Z,-2.69
2023-03-12T02:55:34.087Z,-2.60
2023-03-12T02:58:00.626Z,-2.53
2023-03-12T03:00:26.961Z,-2.45
2023-03-12T03:02:53.262Z,-2.45
2023-03-12T03:05:20.580Z,-2.53
2023-03-12T03:07:46.906Z,-2.51
2023-03-12T03:10:13.257Z,-2.48
2023-03-12T03:12:39.564Z,-2.54
2023-03-12T03:15:05.975Z,-2.43
2023-03-12T03:17:32.296Z,-2.48
2023-03-12T03:19:58.631Z,-2.50
2023-03-12T03:22:24.934Z,-2.45
2023-03-12T03:24:51.305Z,-2.46
2023-03-12T03:27:17.641Z,-2.49
2023-03-12T03:29:43.941Z,-2.40
2023-03-12T03:32:10.272Z,-2.35
2023-03-12T03:34:36.579Z,-2.35
2023-03-12T03:37:02.942Z,-2.28
2023-03-12T03:39:29.290Z,-2.33
2023-03-12T03:41:55.595Z,-2.54
2023-03-12T03:44:23.199Z,-2.45
2023-03-12T03:46:49.648Z,-2.44
2023-03-12T03:49:16.888Z,-2.67
2023-03-12T03:51:43.413Z,-2.58
2023-03-12T03:54:09.791Z,-2.67
2023-03-12T03:56:36.153Z,-2.72
2023-03-12T03:59:03.130Z,-2.71
2023-03-12T04:01:29.460Z,-2.73
2023-03-12T04:03:55.779Z,-2.89
2023-03-12T04:06:22.132Z,-2.93
2023-03-12T04:08:48.457Z,-2.91
2023-03-12T04:11:15.007Z,-2.85
2023-03-12T04:13:41.356Z,-2.87
2023-03-12T04:16:07.833Z,-2.78
2023-03-12T04:18:36.121Z,-2.51
2023-03-12T04:21:02.476Z,-2.63
2023-03-12T04:23:28.796Z,-2.64
2023-03-12T04:25:55.117Z,-2.63
2023-03-12T04:28:21.557Z,-2.66
2023-03-12T04:30:47.873Z,-2.77
2023-03-12T04:33:14.191Z,-2.80
2023-03-12T04:35:40.538Z,-2.84
2023-03-12T04:38:06.885Z,-2.76
2023-03-12T04:40:33.234Z,-2.65
2023-03-12T04:42:59.536Z,-2.68
2023-03-12T04:45:25.908Z,-2.72
2023-03-12T04:47:52.272Z,-2.67
2023-03-12T04:50:18.616Z,-2.70
2023-03-12T04:52:44.957Z,-2.68
2023-03-12T04:55:11.321Z,-2.56
2023-03-12T04:57:37.627Z,-2.53
2023-03-12T05:00:05.507Z,-2.51
2023-03-12T05:02:31.846Z,-2.87
2023-03-12T05:04:58.230Z,-2.90
2023-03-12T05:07:24.584Z,-2.79
2023-03-12T05:09:50.904Z,-2.75
2023-03-12T05:12:17.218Z,-2.74
2023-03-12T05:14:43.526Z,-2.69
2023-03-12T05:17:09.860Z,-2.50
2023-03-12T05:19:36.183Z,-2.55
2023-03-12T05:22:02.592Z,-2.73
2023-03-12T05:24:28.934Z,-2.63
2023-03-12T05:26:55.322Z,-2.68
2023-03-12T05:29:21.689Z,-2.69
2023-03-12T05:31:48.121Z,-2.48
2023-03-12T05:34:14.548Z,-2.73
2023-03-12T05:36:40.887Z,-2.64
2023-03-12T05:39:07.223Z,-2.70
2023-03-12T05:41:33.530Z,-2.76
2023-03-12T05:43:59.949Z,-2.67
2023-03-12T05:46:26.261Z,-2.58
2023-03-12T05:48:52.575Z,-2.54
2023-03-12T05:51:18.886Z,-2.78
2023-03-12T05:53:45.211Z,-2.64
2023-03-12T05:56:11.518Z,-2.59
2023-03-12T05:58:38.215Z,-2.69
2023-03-12T06:01:04.944Z,-2.55
2023-03-12T06:03:31.320Z,-2.50
2023-03-12T06:05:57.674Z,-2.46
2023-03-12T06:08:24.014Z,-2.38
2023-03-12T06:10:50.323Z,-2.33
2023-03-12T06:13:16.629Z,-2.33
2023-03-12T06:15:42.941Z,-2.37
2023-03-12T06:18:09.260Z,-2.25
2023-03-12T06:20:35.568Z,-2.35
2023-03-12T06:23:01.899Z,-2.19
2023-03-12T06:25:28.206Z,-2.16
2023-03-12T06:27:54.546Z,-1.93
2023-03-12T06:30:20.916Z,-1.90
2023-03-12T06:32:47.246Z,-1.70
2023-03-12T06:35:13.576Z,-1.46
2023-03-12T06:37:39.900Z,-1.35
2023-03-12T06:40:07.707Z,-1.28
2023-03-12T06:42:34.046Z,-1.19
2023-03-12T06:45:00.404Z,-1.18
2023-03-12T06:47:26.707Z,-0.94
2023-03-12T06:49:53.041Z,-0.75
2023-03-12T06:52:19.374Z,-0.58
2023-03-12T06:54:45.706Z,-0.41
2023-03-12T06:57:12.073Z,-0.23
2023-03-12T06:59:38.574Z,-0.15
2023-03-12T07:02:04.987Z,-0.02
2023-03-12T07:04:31.369Z,0.16
2023-03-12T07:06:57.704Z,0.31
2023-03-12T07:09:24.151Z,0.37
2023-03-12T07:11:50.513Z,0.40
2023-03-12T07:14:16.837Z,0.47
2023-03-12T07:16:43.646Z,0.81
2023-03-12T07:19:09.979Z,0.90
2023-03-12T07:21:36.458Z,1.09
2023-03-12T07:24:06.969Z,1.33
2023-03-12T07:26:33.582Z,1.33
2023-03-12T07:28:59.881Z,1.31
2023-03-12T07:31:26.262Z,1.34
2023-03-12T07:33:52.706Z,1.47
2023-03-12T07:36:19.222Z,1.49
2023-03-12T07:38:47.916Z,1.17
2023-03-12T07:41:14.325Z,1.14
2023-03-12T07:43:40.733Z,0.97
2023-03-12T07:46:07.122Z,1.39
2023-03-12T07:48:33.474Z,1.51
2023-03-12T07:50:59.848Z,1.70
2023-03-12T07:53:26.348Z,1.96
2023-03-12T07:55:53.110Z,2.24
2023-03-12T07:58:19.603Z,2.11
2023-03-12T08:00:46.586Z,2.01
2023-03-12T08:03:13.586Z,1.94
2023-03-12T08:05:40.205Z,2.22
2023-03-12T08:08:06.580Z,2.21
2023-03-12T08:10:32.952Z,2.27
2023-03-12T08:12:59.342Z,2.37
2023-03-12T08:15:25.674Z,2.33
2023-03-12T08:17:52.063Z,2.21
2023-03-12T08:20:18.469Z,2.13
2023-03-12T08:22:44.822Z,2.27
2023-03-12T08:25:11.132Z,2.46
2023-03-12T08:27:37.500Z,2.51
2023-03-12T08:30:04.093Z,2.80
2023-03-12T08:32:30.574Z,2.94
2023-03-12T08:34:57.758Z,2.88
2023-03-12T08:37:24.156Z,3.28
2023-03-12T08:39:50.481Z,3.81
2023-03-12T08:42:16.787Z,3.70
2023-03-12T08:44:43.161Z,3.12
2023-03-12T08:47:09.488Z,3.46
2023-03-12T08:49:35.810Z,4.30
2023-03-12T08:52:02.199Z,4.51
2023-03-12T08:54:28.534Z,4.61
2023-03-12T08:56:54.862Z,4.66
2023-03-12T08:59:22.318Z,4.19
2023-03-12T09:01:48.760Z,4.57
2023-03-12T09:04:15.206Z,4.40
2023-03-12T09:06:41.560Z,4.55
2023-03-12T09:09:09.142Z,4.73
2023-03-12T09:11:35.464Z,4.96
2023-03-12T09:14:46.322Z,5.31
2023-03-12T09:16:48.215Z,5.66
2023-03-12T09:19:14.556Z,4.97
2023-03-12T09:21:40.886Z,4.70
2023-03-12T09:24:17.811Z,4.69
2023-03-12T09:26:44.132Z,4.31
2023-03-12T09:29:10.468Z,5.32
2023-03-12T09:31:37.199Z,5.80
2023-03-12T09:34:03.777Z,5.84
2023-03-12T09:36:30.104Z,5.84
2023-03-12T09:38:56.404Z,6.07
2023-03-12T09:41:22.790Z,5.59
2023-03-12T09:43:49.126Z,5.46
2023-03-12T09:46:15.476Z,5.22
2023-03-12T09:48:41.986Z,6.23
2023-03-12T09:51:08.319Z,6.30
2023-03-12T09:53:34.840Z,6.47
2023-03-12T09:56:01.266Z,6.19
2023-03-12T09:58:27.592Z,5.89
2023-03-12T10:00:53.959Z,6.23
2023-03-12T10:03:20.338Z,5.88
2023-03-12T10:05:46.862Z,6.05
2023-03-12T10:08:23.920Z,6.45
2023-03-12T10:10:51.764Z,6.80
2023-03-12T10:13:18.160Z,7.06
2023-03-12T10:15:44.618Z,7.02
2023-03-12T10:18:11.071Z,6.56
2023-03-12T10:20:37.486Z,7.02
2023-03-12T10:23:03.839Z,6.66
2023-03-12T10:25:30.268Z,6.79
2023-03-12T10:27:56.786Z,6.86
2023-03-12T10:30:24.113Z,6.59
2023-03-12T10:35:22.165Z,6.34
2023-03-12T10:37:48.496Z,6.61
2023-03-12T10:40:14.811Z,6.88
2023-03-12T10:42:41.140Z,7.13
2023-03-12T10:45:07.472Z,7.62
2023-03-12T10:47:35.153Z,7.62
2023-03-12T10:50:01.546Z,7.17
2023-03-12T10:52:27.868Z,6.80
2023-03-12T10:54:54.244Z,6.83
2023-03-12T10:57:24.032Z,6.64
2023-03-12T10:59:51.469Z,7.00
2023-03-12T11:02:17.861Z,7.28
2023-03-12T11:04:44.176Z,7.59
2023-03-12T11:07:10.499Z,7.44
2023-03-12T11:09:36.825Z,6.68
2023-03-12T11:12:03.214Z,6.86
2023-03-12T11:14:29.581Z,7.35
2023-03-12T11:16:56.650Z,6.92
2023-03-12T11:19:22.971Z,6.97
2023-03-12T11:21:49.298Z,7.03
2023-03-12T11:24:16.217Z,7.69
2023-03-12T11:26:42.536Z,7.48
2023-03-12T11:29:08.924Z,7.42
2023-03-12T11:31:35.262Z,7.32
2023-03-12T11:34:01.630Z,7.50
2023-03-12T11:36:27.946Z,7.65
2023-03-12T11:38:54.273Z,7.49
2023-03-12T11:41:20.637Z,7.16
2023-03-12T11:43:46.959Z,7.63
2023-03-12T11:46:13.371Z,7.98
2023-03-12T11:48:39.768Z,8.26
2023-03-12T11:51:06.110Z,8.55
2023-03-12T11:53:32.459Z,8.65
2023-03-12T11:55:58.807Z,8.47
2023-03-12T11:58:25.131Z,7.59
2023-03-12T12:00:51.447Z,7.66
2023-03-12T12:03:17.841Z,7.23
2023-03-12T12:05:44.206Z,8.00
2023-03-12T12:08:10.532Z,8.06
2023-03-12T12:10:36.846Z,7.93
2023-03-12T12:13:03.185Z,8.25
2023-03-12T12:15:29.554Z,8.69
2023-03-12T12:17:55.894Z,8.42
2023-03-12T12:20:22.310Z,8.55
2023-03-12T12:22:49.632Z,8.17
2023-03-12T12:25:16.112Z,7.71
2023-03-12T12:27:42.531Z,7.70
2023-03-12T12:30:08.893Z,7.69
2023-03-12T12:32:35.280Z,7.61
2023-03-12T12:35:01.631Z,8.05
2023-03-12T12:37:27.961Z,8.42
2023-03-12T12:39:54.323Z,8.22
2023-03-12T12:42:20.678Z,8.00
2023-03-12T12:44:47.017Z,8.28
2023-03-12T12:47:16.657Z,8.38
2023-03-12T12:49:43.087Z,8.04
2023-03-12T12:52:09.427Z,7.84
2023-03-12T12:54:35.732Z,7.47
2023-03-12T12:57:02.121Z,7.25
2023-03-12T12:59:28.574Z,7.60
2023-03-12T13:01:54.883Z,7.46
2023-03-12T13:04:21.278Z,7.31
2023-03-12T13:06:47.608Z,7.36
2023-03-12T13:09:13.976Z,7.61
2023-03-12T13:11:41.210Z,7.63
2023-03-12T13:14:07.544Z,7.62
2023-03-12T13:16:33.952Z,7.73
2023-03-12T13:19:00.296Z,7.73
2023-03-12T13:21:26.623Z,7.07
2023-03-12T13:23:52.944Z,7.53
2023-03-12T13:26:19.325Z,7.64
2023-03-12T13:28:45.640Z,7.81
2023-03-12T13:31:12.026Z,7.90
2023-03-12T13:33:38.365Z,7.77
2023-03-12T13:36:05.015Z,7.70
2023-03-12T13:38:32.114Z,7.87
2023-03-12T13:41:01.316Z,7.61
2023-03-12T13:43:27.631Z,7.40
2023-03-12T13:45:53.975Z,7.32
2023-03-12T13:48:20.370Z,7.51
2023-03-12T13:50:46.685Z,7.55
2023-03-12T13:53:13.001Z,7.77
2023-03-12T13:55:41.061Z,7.88
2023-03-12T13:58:07.454Z,7.67
2023-03-12T14:00:33.809Z,7.91
2023-03-12T14:03:00.139Z,7.77
2023-03-12T14:05:26.451Z,7.56
2023-03-12T14:07:52.768Z,7.58
2023-03-12T14:10:19.107Z,7.37
2023-03-12T14:12:45.493Z,7.33
2023-03-12T14:15:11.837Z,7.34
2023-03-12T14:17:38.194Z,7.24
2023-03-12T14:20:07.173Z,7.02
2023-03-12T14:22:33.555Z,6.40
2023-03-12T14:25:01.959Z,6.63
2023-03-12T14:27:28.447Z,6.58
2023-03-12T14:29:54.771Z,6.62
2023-03-12T14:32:22.676Z,6.80
2023-03-12T14:34:49.415Z,6.74
2023-03-12T14:37:16.549Z,6.59
2023-03-12T14:39:42.871Z,6.33
2023-03-12T14:42:09.216Z,6.33
2023-03-12T14:44:36.709Z,6.56
2023-03-12T14:47:03.157Z,6.22
2023-03-12T14:49:29.580Z,5.68
2023-03-12T14:51:55.938Z,5.75
2023-03-12T14:54:23.822Z,5.82
2023-03-12T14:56:50.247Z,6.09
2023-03-12T14:59:16.584Z,6.19
2023-03-12T15:01:42.902Z,6.11
2023-03-12T15:04:12.022Z,6.12
2023-03-12T15:06:38.381Z,5.81
2023-03-12T15:09:04.794Z,5.86
2023-03-12T15:11:32.594Z,5.33
2023-03-12T15:13:58.893Z,5.32
2023-03-12T15:16:25.296Z,5.36
2023-03-12T15:18:53.057Z,5.36
2023-03-12T15:21:19.408Z,5.31
2023-03-12T15:23:45.738Z,5.03
2023-03-12T15:26:12.091Z,5.27
2023-03-12T15:28:38.479Z,5.23
2023-03-12T15:31:05.205Z,5.31
2023-03-12T15:33:31.580Z,5.29
2023-03-12T15:35:59.631Z,5.40
2023-03-12T15:38:26.270Z,5.33
2023-03-12T15:40:54.018Z,5.26
2023-03-12T15:43:20.424Z,5.56
2023-03-12T15:45:46.932Z,5.68
2023-03-12T15:48:13.339Z,5.53
2023-03-12T15:50:39.654Z,5.37
2023-03-12T15:53:06.114Z,5.30
2023-03-12T15:55:32.482Z,5.34
2023-03-12T15:57:58.816Z,5.43
2023-03-12T16:00:26.575Z,5.48
2023-03-12T16:02:52.966Z,5.51
2023-03-12T16:05:19.334Z,5.57
2023-03-12T16:07:45.678Z,5.55
2023-03-12T16:10:11.996Z,5.45
2023-03-12T16:12:38.341Z,5.56
2023-03-12T16:15:04.731Z,5.44
2023-03-12T16:17:31.096Z,5.48
2023-03-12T16:19:57.405Z,5.56
2023-03-12T16:22:23.734Z,5.51
2023-03-12T16:24:50.095Z,5.55
2023-03-12T16:27:23.688Z,5.44
2023-03-12T16:29:58.174Z,5.50
2023-03-12T16:32:24.601Z,5.31
2023-03-12T16:34:50.930Z,5.42
2023-03-12T16:37:17.275Z,5.50
2023-03-12T16:39:46.404Z,5.50
2023-03-12T16:42:12.726Z,5.52
2023-03-12T16:44:39.062Z,5.48
2023-03-12T16:47:05.608Z,5.51
2023-03-12T16:49:32.033Z,5.50
2023-03-12T16:51:58.925Z,5.57
2023-03-12T16:54:25.287Z,5.57
2023-03-12T16:56:51.674Z,5.49
2023-03-12T16:59:17.996Z,5.47
2023-03-12T17:01:44.348Z,5.49
2023-03-12T17:04:10.789Z,5.46
2023-03-12T17:06:40.040Z,5.58
2023-03-12T17:09:08.746Z,5.44
2023-03-12T17:11:35.130Z,5.23
2023-03-12T17:14:01.505Z,5.18
2023-03-12T17:16:27.902Z,5.34
2023-03-12T17:18:54.299Z,5.23
2023-03-12T17:21:20.653Z,5.35
2023-03-12T17:23:46.984Z,5.40
2023-03-12T17:26:13.382Z,5.32
2023-03-12T17:28:39.759Z,5.39
2023-03-12T17:31:06.139Z,5.16
2023-03-12T17:33:32.558Z,5.32
2023-03-12T17:35:59.160Z,5.44
2023-03-12T17:38:25.564Z,5.51
2023-03-12T17:40:51.904Z,5.58
2023-03-12T17:43:18.237Z,5.65
2023-03-12T17:45:44.600Z,5.74
2023-03-12T17:48:10.934Z,5.83
2023-03-12T17:50:37.243Z,5.65
2023-03-12T17:53:03.585Z,5.73
2023-03-12T17:55:29.959Z,5.80
2023-03-12T17:57:56.308Z,5.78
2023-03-12T18:00:23.230Z,5.83
2023-03-12T18:02:49.583Z,5.89
2023-03-12T18:05:15.923Z,5.95
2023-03-12T18:07:45.541Z,5.94
2023-03-12T18:10:11.854Z,5.98
2023-03-12T18:12:39.121Z,5.98
2023-03-12T18:15:05.515Z,6.05
2023-03-12T18:17:31.840Z,6.13
2023-03-12T18:19:58.152Z,6.14
2023-03-12T18:22:24.659Z,6.19
2023-03-12T18:24:50.988Z,6.03
2023-03-12T18:27:17.302Z,6.21
2023-03-12T18:29:43.673Z,6.23
2023-03-12T18:32:10.022Z,6.34
2023-03-12T18:34:39.538Z,6.35
2023-03-12T18:37:05.851Z,6.37
2023-03-12T18:42:03.674Z,6.38
2023-03-12T18:44:30.005Z,6.47
2023-03-12T18:46:56.445Z,6.44
2023-03-12T18:49:22.881Z,6.43
2023-03-12T18:51:57.539Z,6.44
2023-03-12T18:54:24.827Z,6.36
2023-03-12T18:56:51.396Z,6.12
2023-03-12T18:59:17.764Z,6.44
2023-03-12T19:01:45.591Z,6.58
2023-03-12T19:04:11.959Z,6.66
2023-03-12T19:06:50.179Z,6.59
2023-03-12T19:09:17.815Z,6.56
2023-03-12T19:11:44.150Z,6.65
2023-03-12T19:14:12.368Z,6.76
2023-03-12T19:16:38.810Z,6.78
2023-03-12T19:19:05.203Z,6.68
2023-03-12T19:21:31.552Z,6.71
2023-03-12T19:23:58.104Z,6.77
2023-03-12T19:26:24.618Z,6.81
2023-03-12T19:28:50.977Z,6.91
2023-03-12T19:31:17.376Z,7.02
2023-03-12T19:33:44.850Z,7.02
2023-03-12T19:36:11.288Z,7.20
2023-03-12T19:38:37.783Z,7.13
2023-03-12T19:41:04.152Z,7.16
2023-03-12T19:43:30.494Z,7.13
2023-03-12T19:45:56.903Z,7.13
2023-03-12T19:48:25.299Z,7.19
2023-03-12T19:50:52.213Z,7.21
2023-03-12T19:53:19.763Z,7.18
2023-03-12T19:55:46.095Z,7.21
2023-03-12T19:58:12.412Z,7.34
2023-03-12T20:00:38.760Z,7.48
2023-03-12T20:03:05.284Z,7.46
2023-03-12T20:05:31.656Z,7.35
2023-03-12T20:07:57.980Z,7.37
2023-03-12T20:10:24.445Z,7.46
2023-03-12T20:12:50.741Z,7.48
2023-03-12T20:15:17.040Z,7.32
2023-03-12T20:17:43.354Z,7.41
2023-03-12T20:20:09.657Z,7.44
2023-03-12T20:22:38.984Z,7.53
2023-03-12T20:25:05.547Z,7.41
2023-03-12T20:27:31.868Z,7.54
2023-03-12T20:29:58.177Z,7.47
2023-03-12T20:32:24.543Z,7.43
2023-03-12T20:34:50.862Z,7.48
2023-03-12T20:37:18.113Z,7.41
2023-03-12T20:39:44.480Z,7.49
2023-03-12T20:42:10.794Z,7.50
2023-03-12T20:44:37.238Z,7.51
2023-03-12T20:47:03.611Z,7.48
2023-03-12T20:49:29.922Z,7.57
2023-03-12T20:51:56.248Z,7.61
2023-03-12T20:54:24.492Z,7.64
2023-03-12T20:56:50.854Z,7.63
2023-03-12T20:59:17.157Z,7.71
2023-03-12T21:01:43.692Z,7.63
2023-03-12T21:04:10.048Z,7.67
2023-03-12T21:06:36.455Z,7.68
2023-03-12T21:09:02.825Z,7.73
2023-03-12T21:11:29.244Z,7.76
2023-03-12T21:13:55.546Z,7.81
2023-03-12T21:16:21.959Z,7.91
2023-03-12T21:18:48.345Z,7.98
2023-03-12T21:21:14.833Z,8.05
2023-03-12T21:23:41.295Z,8.02
2023-03-12T21:26:09.333Z,7.91
2023-03-12T21:28:36.148Z,8.04
2023-03-12T21:31:02.545Z,7.90
2023-03-12T21:33:28.868Z,8.06
2023-03-12T21:35:55.299Z,8.02
2023-03-12T21:38:21.635Z,8.11
2023-03-12T21:40:47.941Z,8.09
2023-03-12T21:43:14.256Z,8.05
2023-03-12T22:00:14.310Z,8.18
2023-03-12T22:02:40.621Z,8.23
2023-03-12T22:05:06.917Z,8.28
2023-03-12T22:07:33.261Z,8.37
2023-03-12T22:09:59.575Z,8.30
2023-03-12T22:12:25.923Z,8.36
2023-03-12T22:14:52.322Z,8.46
2023-03-12T22:17:18.634Z,8.43
2023-03-12T22:19:44.962Z,8.49
2023-03-12T22:22:11.309Z,8.53
2023-03-12T22:24:37.727Z,8.43
2023-03-12T22:27:06.587Z,8.51
2023-03-12T22:29:32.897Z,8.46
2023-03-12T22:31:59.197Z,8.47
2023-03-12T22:34:25.510Z,8.50
2023-03-12T22:36:51.832Z,8.46
2023-03-12T22:39:18.173Z,8.34
2023-03-12T22:41:44.476Z,8.43
2023-03-12T22:44:10.778Z,8.58
2023-03-12T22:46:37.178Z,8.53
2023-03-12T22:49:03.660Z,8.51
2023-03-12T22:51:30.003Z,8.56
2023-03-12T22:53:56.310Z,8.61
2023-03-12T22:56:22.680Z,8.62
2023-03-12T22:58:49.104Z,8.69
2023-03-12T23:01:15.672Z,8.63
2023-03-12T23:03:42.004Z,8.68
2023-03-12T23:06:08.510Z,8.70
2023-03-12T23:08:34.861Z,8.64
2023-03-12T23:11:01.165Z,8.67
2023-03-12T23:13:27.474Z,8.71
2023-03-12T23:15:53.789Z,8.67
2023-03-12T23:18:20.131Z,8.74
2023-03-12T23:20:46.555Z,8.65
2023-03-12T23:23:15.616Z,8.56
2023-03-12T23:25:41.947Z,8.64
2023-03-12T23:28:08.263Z,8.64
2023-03-12T23:30:34.909Z,8.64
2023-03-12T23:33:01.942Z,8.66
2023-03-12T23:35:28.815Z,8.65
2023-03-12T23:37:56.602Z,8.65
2023-03-12T23:40:22.934Z,8.74
2023-03-12T23:42:49.234Z,8.78
2023-03-12T23:45:15.554Z,8.81
2023-03-12T23:47:41.879Z,8.76
2023-03-12T23:50:08.213Z,8.81
2023-03-12T23:52:34.528Z,8.80
2023-03-12T23:55:00.849Z,8.79
2023-03-12T23:57:27.189Z,8.79
2023-03-12T23:59:53.530Z,8.81
